sensor_id;sensor_type;location;lat;lon;timestamp;P1;durP1;ratioP1;P2;durP2;ratioP2
11042;SDS011;5574;48.786;10.120;2023-05-18T00:00:52;3.90;;;2.90;;
11042;SDS011;5574;48.786;10.120;2023-05-18T00:03:19;3.10;;;2.77;;
11042;SDS011;5574;48.786;10.120;2023-05-18T00:05:47;3.30;;;3.00;;
11042;SDS011;5574;48.786;10.120;2023-05-18T00:08:14;3.13;;;2.60;;
11042;SDS011;5574;48.786;10.120;2023-05-18T00:10:41;3.23;;;2.63;;
11042;SDS011;5574;48.786;10.120;2023-05-18T00:13:07;3.27;;;2.50;;
11042;SDS011;5574;48.786;10.120;2023-05-18T00:15:34;4.53;;;2.93;;
11042;SDS011;5574;48.786;10.120;2023-05-18T00:18:01;5.13;;;3.40;;
11042;SDS011;5574;48.786;10.120;2023-05-18T00:20:27;3.93;;;2.87;;
11042;SDS011;5574;48.786;10.120;2023-05-18T00:22:55;3.97;;;3.00;;
11042;SDS011;5574;48.786;10.120;2023-05-18T00:25:22;4.47;;;3.00;;
11042;SDS011;5574;48.786;10.120;2023-05-18T00:27:49;4.00;;;2.80;;
11042;SDS011;5574;48.786;10.120;2023-05-18T00:30:15;3.43;;;2.83;;
11042;SDS011;5574;48.786;10.120;2023-05-18T00:32:42;3.30;;;3.00;;
11042;SDS011;5574;48.786;10.120;2023-05-18T00:35:09;5.77;;;2.97;;
11042;SDS011;5574;48.786;10.120;2023-05-18T00:37:36;4.40;;;2.80;;
11042;SDS011;5574;48.786;10.120;2023-05-18T00:40:04;3.87;;;2.80;;
11042;SDS011;5574;48.786;10.120;2023-05-18T00:42:33;3.80;;;2.80;;
11042;SDS011;5574;48.786;10.120;2023-05-18T00:44:59;4.30;;;3.10;;
11042;SDS011;5574;48.786;10.120;2023-05-18T00:47:26;6.47;;;2.87;;
11042;SDS011;5574;48.786;10.120;2023-05-18T00:49:53;5.40;;;2.90;;
11042;SDS011;5574;48.786;10.120;2023-05-18T00:52:20;4.67;;;3.23;;
11042;SDS011;5574;48.786;10.120;2023-05-18T00:54:46;3.13;;;2.83;;
11042;SDS011;5574;48.786;10.120;2023-05-18T00:57:15;2.87;;;2.60;;
11042;SDS011;5574;48.786;10.120;2023-05-18T00:59:43;4.47;;;2.90;;
11042;SDS011;5574;48.786;10.120;2023-05-18T01:02:10;3.50;;;2.80;;
11042;SDS011;5574;48.786;10.120;2023-05-18T01:04:39;3.60;;;3.13;;
11042;SDS011;5574;48.786;10.120;2023-05-18T01:07:07;4.63;;;2.97;;
11042;SDS011;5574;48.786;10.120;2023-05-18T01:09:33;3.43;;;2.73;;
11042;SDS011;5574;48.786;10.120;2023-05-18T01:12:02;3.00;;;2.70;;
11042;SDS011;5574;48.786;10.120;2023-05-18T01:14:36;3.60;;;2.77;;
11042;SDS011;5574;48.786;10.120;2023-05-18T01:17:11;3.83;;;2.80;;
11042;SDS011;5574;48.786;10.120;2023-05-18T01:22:47;3.87;;;2.80;;
11042;SDS011;5574;48.786;10.120;2023-05-18T01:25:30;2.77;;;2.53;;
11042;SDS011;5574;48.786;10.120;2023-05-18T01:28:02;3.57;;;3.07;;
11042;SDS011;5574;48.786;10.120;2023-05-18T01:30:33;4.47;;;3.20;;
11042;SDS011;5574;48.786;10.120;2023-05-18T01:33:05;5.07;;;4.27;;
11042;SDS011;5574;48.786;10.120;2023-05-18T01:35:33;7.90;;;6.40;;
11042;SDS011;5574;48.786;10.120;2023-05-18T01:37:59;5.73;;;4.50;;
11042;SDS011;5574;48.786;10.120;2023-05-18T01:40:26;9.23;;;5.77;;
11042;SDS011;5574;48.786;10.120;2023-05-18T01:42:58;6.73;;;5.00;;
11042;SDS011;5574;48.786;10.120;2023-05-18T01:45:31;5.20;;;3.50;;
11042;SDS011;5574;48.786;10.120;2023-05-18T01:47:58;6.97;;;3.30;;
11042;SDS011;5574;48.786;10.120;2023-05-18T01:50:28;3.07;;;2.77;;
11042;SDS011;5574;48.786;10.120;2023-05-18T01:53:03;4.90;;;3.03;;
11042;SDS011;5574;48.786;10.120;2023-05-18T01:55:33;4.47;;;2.77;;
11042;SDS011;5574;48.786;10.120;2023-05-18T01:58:01;4.60;;;3.10;;
11042;SDS011;5574;48.786;10.120;2023-05-18T02:00:32;4.23;;;3.10;;
11042;SDS011;5574;48.786;10.120;2023-05-18T02:03:00;2.53;;;2.33;;
11042;SDS011;5574;48.786;10.120;2023-05-18T02:05:27;4.10;;;2.90;;
11042;SDS011;5574;48.786;10.120;2023-05-18T02:07:53;4.83;;;2.73;;
11042;SDS011;5574;48.786;10.120;2023-05-18T02:10:21;4.57;;;2.57;;
11042;SDS011;5574;48.786;10.120;2023-05-18T02:12:47;3.70;;;2.60;;
11042;SDS011;5574;48.786;10.120;2023-05-18T02:15:16;2.93;;;2.60;;
11042;SDS011;5574;48.786;10.120;2023-05-18T02:17:45;3.63;;;2.90;;
11042;SDS011;5574;48.786;10.120;2023-05-18T02:20:12;3.30;;;2.60;;
11042;SDS011;5574;48.786;10.120;2023-05-18T02:22:42;2.83;;;2.43;;
11042;SDS011;5574;48.786;10.120;2023-05-18T02:25:09;3.97;;;2.30;;
11042;SDS011;5574;48.786;10.120;2023-05-18T02:27:36;3.27;;;2.60;;
11042;SDS011;5574;48.786;10.120;2023-05-18T02:30:03;4.93;;;2.57;;
11042;SDS011;5574;48.786;10.120;2023-05-18T02:32:32;2.90;;;2.50;;
11042;SDS011;5574;48.786;10.120;2023-05-18T02:35:03;3.33;;;2.77;;
11042;SDS011;5574;48.786;10.120;2023-05-18T02:37:30;4.30;;;2.80;;
11042;SDS011;5574;48.786;10.120;2023-05-18T02:39:58;4.60;;;2.97;;
11042;SDS011;5574;48.786;10.120;2023-05-18T02:42:25;3.20;;;2.90;;
11042;SDS011;5574;48.786;10.120;2023-05-18T02:44:51;3.33;;;2.57;;
11042;SDS011;5574;48.786;10.120;2023-05-18T02:47:18;3.33;;;3.00;;
11042;SDS011;5574;48.786;10.120;2023-05-18T02:49:45;4.57;;;2.83;;
11042;SDS011;5574;48.786;10.120;2023-05-18T02:52:13;3.27;;;2.90;;
11042;SDS011;5574;48.786;10.120;2023-05-18T02:54:40;5.63;;;2.90;;
11042;SDS011;5574;48.786;10.120;2023-05-18T02:57:06;3.20;;;2.67;;
11042;SDS011;5574;48.786;10.120;2023-05-18T02:59:35;3.37;;;3.07;;
11042;SDS011;5574;48.786;10.120;2023-05-18T03:02:02;4.17;;;2.70;;
11042;SDS011;5574;48.786;10.120;2023-05-18T03:04:29;3.60;;;2.80;;
11042;SDS011;5574;48.786;10.120;2023-05-18T03:06:56;3.60;;;2.90;;
11042;SDS011;5574;48.786;10.120;2023-05-18T03:09:27;2.73;;;2.43;;
11042;SDS011;5574;48.786;10.120;2023-05-18T03:11:54;4.20;;;3.17;;
11042;SDS011;5574;48.786;10.120;2023-05-18T03:14:21;3.20;;;2.60;;
11042;SDS011;5574;48.786;10.120;2023-05-18T03:16:48;5.03;;;2.80;;
11042;SDS011;5574;48.786;10.120;2023-05-18T03:19:18;3.80;;;2.77;;
11042;SDS011;5574;48.786;10.120;2023-05-18T03:21:44;4.67;;;2.80;;
11042;SDS011;5574;48.786;10.120;2023-05-18T03:24:13;3.10;;;2.80;;
11042;SDS011;5574;48.786;10.120;2023-05-18T03:26:41;2.83;;;2.63;;
11042;SDS011;5574;48.786;10.120;2023-05-18T03:29:08;4.03;;;2.90;;
11042;SDS011;5574;48.786;10.120;2023-05-18T03:31:35;4.63;;;3.27;;
11042;SDS011;5574;48.786;10.120;2023-05-18T03:34:02;3.70;;;3.10;;
11042;SDS011;5574;48.786;10.120;2023-05-18T03:36:28;4.63;;;3.20;;
11042;SDS011;5574;48.786;10.120;2023-05-18T03:38:55;5.33;;;2.80;;
11042;SDS011;5574;48.786;10.120;2023-05-18T03:41:22;4.37;;;3.20;;
11042;SDS011;5574;48.786;10.120;2023-05-18T03:43:50;4.80;;;3.03;;
11042;SDS011;5574;48.786;10.120;2023-05-18T03:46:16;4.50;;;2.90;;
11042;SDS011;5574;48.786;10.120;2023-05-18T03:48:43;4.43;;;3.20;;
11042;SDS011;5574;48.786;10.120;2023-05-18T03:51:10;4.00;;;3.30;;
11042;SDS011;5574;48.786;10.120;2023-05-18T03:53:36;4.80;;;3.10;;
11042;SDS011;5574;48.786;10.120;2023-05-18T03:56:03;6.00;;;3.20;;
11042;SDS011;5574;48.786;10.120;2023-05-18T03:58:30;4.83;;;3.17;;
11042;SDS011;5574;48.786;10.120;2023-05-18T04:00:58;6.63;;;3.00;;
11042;SDS011;5574;48.786;10.120;2023-05-18T04:03:25;5.10;;;2.80;;
11042;SDS011;5574;48.786;10.120;2023-05-18T04:05:52;4.03;;;2.90;;
11042;SDS011;5574;48.786;10.120;2023-05-18T04:08:19;5.37;;;2.87;;
11042;SDS011;5574;48.786;10.120;2023-05-18T04:10:49;7.57;;;4.60;;
11042;SDS011;5574;48.786;10.120;2023-05-18T04:13:16;2.60;;;2.20;;
11042;SDS011;5574;48.786;10.120;2023-05-18T04:15:43;4.97;;;2.90;;
11042;SDS011;5574;48.786;10.120;2023-05-18T04:18:11;6.00;;;3.40;;
11042;SDS011;5574;48.786;10.120;2023-05-18T04:20:39;3.87;;;2.83;;
11042;SDS011;5574;48.786;10.120;2023-05-18T04:23:06;4.30;;;3.13;;
11042;SDS011;5574;48.786;10.120;2023-05-18T04:25:34;5.80;;;3.13;;
11042;SDS011;5574;48.786;10.120;2023-05-18T04:28:03;3.57;;;3.20;;
11042;SDS011;5574;48.786;10.120;2023-05-18T04:30:30;4.03;;;2.67;;
11042;SDS011;5574;48.786;10.120;2023-05-18T04:32:59;4.93;;;3.23;;
11042;SDS011;5574;48.786;10.120;2023-05-18T04:35:29;4.43;;;3.00;;
11042;SDS011;5574;48.786;10.120;2023-05-18T04:37:56;4.60;;;3.37;;
11042;SDS011;5574;48.786;10.120;2023-05-18T04:40:23;4.37;;;2.83;;
11042;SDS011;5574;48.786;10.120;2023-05-18T04:42:50;4.47;;;3.10;;
11042;SDS011;5574;48.786;10.120;2023-05-18T04:45:16;3.27;;;2.60;;
11042;SDS011;5574;48.786;10.120;2023-05-18T04:47:46;4.17;;;2.90;;
11042;SDS011;5574;48.786;10.120;2023-05-18T04:50:17;3.23;;;2.93;;
11042;SDS011;5574;48.786;10.120;2023-05-18T04:52:47;5.63;;;2.90;;
11042;SDS011;5574;48.786;10.120;2023-05-18T04:55:15;6.07;;;3.00;;
11042;SDS011;5574;48.786;10.120;2023-05-18T04:57:46;5.97;;;2.53;;
11042;SDS011;5574;48.786;10.120;2023-05-18T05:00:14;3.97;;;2.77;;
11042;SDS011;5574;48.786;10.120;2023-05-18T05:02:42;4.80;;;2.77;;
11042;SDS011;5574;48.786;10.120;2023-05-18T05:05:08;6.97;;;3.20;;
11042;SDS011;5574;48.786;10.120;2023-05-18T05:07:35;7.10;;;3.20;;
11042;SDS011;5574;48.786;10.120;2023-05-18T05:10:04;5.23;;;3.10;;
11042;SDS011;5574;48.786;10.120;2023-05-18T05:12:31;6.67;;;2.93;;
11042;SDS011;5574;48.786;10.120;2023-05-18T05:14:58;4.87;;;3.00;;
11042;SDS011;5574;48.786;10.120;2023-05-18T05:17:25;8.23;;;3.10;;
11042;SDS011;5574;48.786;10.120;2023-05-18T05:19:51;7.40;;;3.57;;
11042;SDS011;5574;48.786;10.120;2023-05-18T05:22:18;4.50;;;3.20;;
11042;SDS011;5574;48.786;10.120;2023-05-18T05:24:45;5.90;;;3.03;;
11042;SDS011;5574;48.786;10.120;2023-05-18T05:27:13;4.27;;;2.80;;
11042;SDS011;5574;48.786;10.120;2023-05-18T05:29:39;5.93;;;2.60;;
11042;SDS011;5574;48.786;10.120;2023-05-18T05:32:07;4.70;;;2.80;;
11042;SDS011;5574;48.786;10.120;2023-05-18T05:34:34;4.17;;;2.70;;
11042;SDS011;5574;48.786;10.120;2023-05-18T05:37:01;6.60;;;2.73;;
11042;SDS011;5574;48.786;10.120;2023-05-18T05:39:28;5.47;;;2.70;;
11042;SDS011;5574;48.786;10.120;2023-05-18T05:41:54;6.03;;;2.57;;
11042;SDS011;5574;48.786;10.120;2023-05-18T05:44:23;5.53;;;2.80;;
11042;SDS011;5574;48.786;10.120;2023-05-18T05:46:50;7.77;;;2.87;;
11042;SDS011;5574;48.786;10.120;2023-05-18T05:49:17;3.33;;;2.60;;
11042;SDS011;5574;48.786;10.120;2023-05-18T05:51:43;6.10;;;2.90;;
11042;SDS011;5574;48.786;10.120;2023-05-18T05:54:10;6.97;;;3.07;;
11042;SDS011;5574;48.786;10.120;2023-05-18T05:56:37;4.33;;;2.67;;
11042;SDS011;5574;48.786;10.120;2023-05-18T05:59:03;4.83;;;2.67;;
11042;SDS011;5574;48.786;10.120;2023-05-18T06:01:31;4.60;;;2.50;;
11042;SDS011;5574;48.786;10.120;2023-05-18T06:03:58;6.80;;;2.80;;
11042;SDS011;5574;48.786;10.120;2023-05-18T06:06:26;5.60;;;2.97;;
11042;SDS011;5574;48.786;10.120;2023-05-18T06:08:53;9.03;;;2.87;;
11042;SDS011;5574;48.786;10.120;2023-05-18T06:11:20;4.27;;;2.67;;
11042;SDS011;5574;48.786;10.120;2023-05-18T06:13:46;5.37;;;2.70;;
11042;SDS011;5574;48.786;10.120;2023-05-18T06:16:13;5.63;;;2.80;;
11042;SDS011;5574;48.786;10.120;2023-05-18T06:18:41;4.53;;;2.53;;
11042;SDS011;5574;48.786;10.120;2023-05-18T06:21:08;5.20;;;2.73;;
11042;SDS011;5574;48.786;10.120;2023-05-18T06:23:34;4.37;;;2.30;;
11042;SDS011;5574;48.786;10.120;2023-05-18T06:26:01;5.97;;;2.47;;
11042;SDS011;5574;48.786;10.120;2023-05-18T06:28:28;7.87;;;2.90;;
11042;SDS011;5574;48.786;10.120;2023-05-18T06:30:55;7.37;;;2.63;;
11042;SDS011;5574;48.786;10.120;2023-05-18T06:33:21;6.33;;;2.40;;
11042;SDS011;5574;48.786;10.120;2023-05-18T06:35:49;6.23;;;2.30;;
11042;SDS011;5574;48.786;10.120;2023-05-18T06:38:16;7.23;;;2.30;;
11042;SDS011;5574;48.786;10.120;2023-05-18T06:40:43;5.17;;;2.50;;
11042;SDS011;5574;48.786;10.120;2023-05-18T06:43:10;5.77;;;2.63;;
11042;SDS011;5574;48.786;10.120;2023-05-18T06:45:37;6.80;;;2.97;;
11042;SDS011;5574;48.786;10.120;2023-05-18T06:48:04;4.63;;;2.40;;
11042;SDS011;5574;48.786;10.120;2023-05-18T06:50:31;4.27;;;2.17;;
11042;SDS011;5574;48.786;10.120;2023-05-18T06:52:59;6.00;;;2.47;;
11042;SDS011;5574;48.786;10.120;2023-05-18T06:55:28;4.93;;;2.47;;
11042;SDS011;5574;48.786;10.120;2023-05-18T06:57:55;7.57;;;2.50;;
11042;SDS011;5574;48.786;10.120;2023-05-18T07:00:22;6.57;;;2.80;;
11042;SDS011;5574;48.786;10.120;2023-05-18T07:02:49;5.20;;;2.60;;
11042;SDS011;5574;48.786;10.120;2023-05-18T07:05:15;5.30;;;2.40;;
11042;SDS011;5574;48.786;10.120;2023-05-18T07:07:42;5.53;;;3.10;;
11042;SDS011;5574;48.786;10.120;2023-05-18T07:10:10;6.00;;;2.93;;
11042;SDS011;5574;48.786;10.120;2023-05-18T07:12:37;5.37;;;2.47;;
11042;SDS011;5574;48.786;10.120;2023-05-18T07:15:04;5.60;;;2.83;;
11042;SDS011;5574;48.786;10.120;2023-05-18T07:17:32;4.87;;;2.67;;
11042;SDS011;5574;48.786;10.120;2023-05-18T07:19:58;6.23;;;2.40;;
11042;SDS011;5574;48.786;10.120;2023-05-18T07:22:25;5.57;;;2.87;;
11042;SDS011;5574;48.786;10.120;2023-05-18T07:24:51;7.17;;;2.90;;
11042;SDS011;5574;48.786;10.120;2023-05-18T07:27:20;6.43;;;2.80;;
11042;SDS011;5574;48.786;10.120;2023-05-18T07:29:46;7.53;;;3.10;;
11042;SDS011;5574;48.786;10.120;2023-05-18T07:32:13;5.73;;;3.03;;
11042;SDS011;5574;48.786;10.120;2023-05-18T07:34:40;3.87;;;2.23;;
11042;SDS011;5574;48.786;10.120;2023-05-18T07:37:07;4.73;;;2.63;;
11042;SDS011;5574;48.786;10.120;2023-05-18T07:39:34;6.57;;;2.80;;
11042;SDS011;5574;48.786;10.120;2023-05-18T07:42:01;5.90;;;2.90;;
11042;SDS011;5574;48.786;10.120;2023-05-18T07:44:29;4.33;;;2.50;;
11042;SDS011;5574;48.786;10.120;2023-05-18T07:46:56;5.60;;;2.70;;
11042;SDS011;5574;48.786;10.120;2023-05-18T07:49:22;4.87;;;2.80;;
11042;SDS011;5574;48.786;10.120;2023-05-18T07:51:49;4.37;;;2.67;;
11042;SDS011;5574;48.786;10.120;2023-05-18T07:54:16;3.70;;;2.57;;
11042;SDS011;5574;48.786;10.120;2023-05-18T07:56:43;5.83;;;2.93;;
11042;SDS011;5574;48.786;10.120;2023-05-18T07:59:10;4.00;;;2.80;;
11042;SDS011;5574;48.786;10.120;2023-05-18T08:01:38;7.57;;;3.03;;
11042;SDS011;5574;48.786;10.120;2023-05-18T08:04:05;7.83;;;3.00;;
11042;SDS011;5574;48.786;10.120;2023-05-18T08:06:32;5.37;;;2.27;;
11042;SDS011;5574;48.786;10.120;2023-05-18T08:08:58;5.73;;;3.33;;
11042;SDS011;5574;48.786;10.120;2023-05-18T08:11:25;11.00;;;3.10;;
11042;SDS011;5574;48.786;10.120;2023-05-18T08:13:52;6.90;;;2.93;;
11042;SDS011;5574;48.786;10.120;2023-05-18T08:16:18;6.73;;;2.87;;
11042;SDS011;5574;48.786;10.120;2023-05-18T08:18:46;4.53;;;2.67;;
11042;SDS011;5574;48.786;10.120;2023-05-18T08:21:13;8.70;;;3.10;;
11042;SDS011;5574;48.786;10.120;2023-05-18T08:23:40;5.33;;;2.90;;
11042;SDS011;5574;48.786;10.120;2023-05-18T08:26:07;5.67;;;3.17;;
11042;SDS011;5574;48.786;10.120;2023-05-18T08:28:33;6.07;;;3.07;;
11042;SDS011;5574;48.786;10.120;2023-05-18T08:31:00;7.53;;;2.90;;
11042;SDS011;5574;48.786;10.120;2023-05-18T08:33:27;5.43;;;2.63;;
11042;SDS011;5574;48.786;10.120;2023-05-18T08:35:55;5.63;;;3.40;;
11042;SDS011;5574;48.786;10.120;2023-05-18T08:38:21;8.30;;;2.80;;
11042;SDS011;5574;48.786;10.120;2023-05-18T08:40:49;6.50;;;2.87;;
11042;SDS011;5574;48.786;10.120;2023-05-18T08:43:24;7.53;;;2.90;;
11042;SDS011;5574;48.786;10.120;2023-05-18T08:45:57;5.93;;;2.73;;
11042;SDS011;5574;48.786;10.120;2023-05-18T08:48:30;6.10;;;3.13;;
11042;SDS011;5574;48.786;10.120;2023-05-18T08:50:59;5.63;;;3.00;;
11042;SDS011;5574;48.786;10.120;2023-05-18T08:53:28;7.10;;;2.70;;
11042;SDS011;5574;48.786;10.120;2023-05-18T08:55:57;6.13;;;3.10;;
11042;SDS011;5574;48.786;10.120;2023-05-18T08:58:26;4.80;;;2.80;;
11042;SDS011;5574;48.786;10.120;2023-05-18T09:00:59;7.67;;;2.80;;
11042;SDS011;5574;48.786;10.120;2023-05-18T09:03:25;6.17;;;2.60;;
11042;SDS011;5574;48.786;10.120;2023-05-18T09:05:53;5.97;;;2.87;;
11042;SDS011;5574;48.786;10.120;2023-05-18T09:08:23;6.03;;;2.80;;
11042;SDS011;5574;48.786;10.120;2023-05-18T09:10:50;5.50;;;2.73;;
11042;SDS011;5574;48.786;10.120;2023-05-18T09:13:17;6.30;;;2.90;;
11042;SDS011;5574;48.786;10.120;2023-05-18T09:15:45;6.13;;;2.93;;
11042;SDS011;5574;48.786;10.120;2023-05-18T09:18:12;6.20;;;2.60;;
11042;SDS011;5574;48.786;10.120;2023-05-18T09:20:38;5.03;;;2.50;;
11042;SDS011;5574;48.786;10.120;2023-05-18T09:23:05;5.70;;;2.87;;
11042;SDS011;5574;48.786;10.120;2023-05-18T09:25:33;5.90;;;2.92;;
11042;SDS011;5574;48.786;10.120;2023-05-18T09:28:07;5.47;;;2.53;;
11042;SDS011;5574;48.786;10.120;2023-05-18T09:30:38;4.73;;;2.20;;
11042;SDS011;5574;48.786;10.120;2023-05-18T09:33:06;4.33;;;2.50;;
11042;SDS011;5574;48.786;10.120;2023-05-18T09:35:42;8.95;;;2.72;;
11042;SDS011;5574;48.786;10.120;2023-05-18T09:38:10;8.32;;;2.90;;
11042;SDS011;5574;48.786;10.120;2023-05-18T09:40:39;4.97;;;2.60;;
11042;SDS011;5574;48.786;10.120;2023-05-18T09:43:09;5.65;;;2.65;;
11042;SDS011;5574;48.786;10.120;2023-05-18T09:45:37;5.93;;;2.67;;
11042;SDS011;5574;48.786;10.120;2023-05-18T09:48:08;3.85;;;2.47;;
11042;SDS011;5574;48.786;10.120;2023-05-18T09:50:34;4.05;;;2.40;;
11042;SDS011;5574;48.786;10.120;2023-05-18T09:53:02;6.30;;;2.60;;
11042;SDS011;5574;48.786;10.120;2023-05-18T09:55:31;5.50;;;2.55;;
11042;SDS011;5574;48.786;10.120;2023-05-18T09:58:04;4.63;;;2.28;;
11042;SDS011;5574;48.786;10.120;2023-05-18T10:00:34;5.75;;;2.63;;
11042;SDS011;5574;48.786;10.120;2023-05-18T10:03:02;7.18;;;2.50;;
11042;SDS011;5574;48.786;10.120;2023-05-18T10:05:29;6.15;;;2.40;;
11042;SDS011;5574;48.786;10.120;2023-05-18T10:07:58;6.40;;;2.50;;
11042;SDS011;5574;48.786;10.120;2023-05-18T10:10:25;6.47;;;2.60;;
11042;SDS011;5574;48.786;10.120;2023-05-18T10:12:54;3.30;;;2.38;;
11042;SDS011;5574;48.786;10.120;2023-05-18T10:15:24;5.05;;;2.13;;
11042;SDS011;5574;48.786;10.120;2023-05-18T10:17:54;4.78;;;2.70;;
11042;SDS011;5574;48.786;10.120;2023-05-18T10:20:21;4.38;;;2.70;;
11042;SDS011;5574;48.786;10.120;2023-05-18T10:22:50;6.38;;;2.60;;
11042;SDS011;5574;48.786;10.120;2023-05-18T10:25:20;7.18;;;3.08;;
11042;SDS011;5574;48.786;10.120;2023-05-18T10:27:48;6.35;;;2.58;;
11042;SDS011;5574;48.786;10.120;2023-05-18T10:30:16;5.63;;;2.65;;
11042;SDS011;5574;48.786;10.120;2023-05-18T10:32:44;6.38;;;2.38;;
11042;SDS011;5574;48.786;10.120;2023-05-18T10:35:11;3.70;;;2.30;;
11042;SDS011;5574;48.786;10.120;2023-05-18T10:37:40;5.15;;;2.50;;
11042;SDS011;5574;48.786;10.120;2023-05-18T10:40:11;5.60;;;2.40;;
11042;SDS011;5574;48.786;10.120;2023-05-18T10:42:39;4.60;;;2.50;;
11042;SDS011;5574;48.786;10.120;2023-05-18T10:45:07;4.65;;;2.42;;
11042;SDS011;5574;48.786;10.120;2023-05-18T10:47:36;5.40;;;2.25;;
11042;SDS011;5574;48.786;10.120;2023-05-18T10:50:06;4.57;;;2.47;;
11042;SDS011;5574;48.786;10.120;2023-05-18T10:52:34;5.38;;;2.20;;
11042;SDS011;5574;48.786;10.120;2023-05-18T10:55:02;4.93;;;2.40;;
11042;SDS011;5574;48.786;10.120;2023-05-18T10:57:32;3.05;;;2.15;;
11042;SDS011;5574;48.786;10.120;2023-05-18T11:00:02;7.13;;;2.40;;
11042;SDS011;5574;48.786;10.120;2023-05-18T11:02:33;5.40;;;2.50;;
11042;SDS011;5574;48.786;10.120;2023-05-18T11:05:03;5.68;;;2.30;;
11042;SDS011;5574;48.786;10.120;2023-05-18T11:07:32;7.18;;;2.33;;
11042;SDS011;5574;48.786;10.120;2023-05-18T11:09:59;5.28;;;2.15;;
11042;SDS011;5574;48.786;10.120;2023-05-18T11:12:27;4.63;;;2.30;;
11042;SDS011;5574;48.786;10.120;2023-05-18T11:14:57;6.00;;;2.42;;
11042;SDS011;5574;48.786;10.120;2023-05-18T11:17:25;9.15;;;2.70;;
11042;SDS011;5574;48.786;10.120;2023-05-18T11:20:15;4.13;;;2.25;;
11042;SDS011;5574;48.786;10.120;2023-05-18T11:22:45;5.38;;;2.33;;
11042;SDS011;5574;48.786;10.120;2023-05-18T11:28:05;5.68;;;2.10;;
11042;SDS011;5574;48.786;10.120;2023-05-18T11:30:46;5.25;;;1.90;;
11042;SDS011;5574;48.786;10.120;2023-05-18T11:33:15;4.28;;;2.20;;
11042;SDS011;5574;48.786;10.120;2023-05-18T11:36:08;3.63;;;1.80;;
11042;SDS011;5574;48.786;10.120;2023-05-18T11:38:46;3.13;;;2.13;;
11042;SDS011;5574;48.786;10.120;2023-05-18T11:41:27;5.43;;;2.28;;
11042;SDS011;5574;48.786;10.120;2023-05-18T11:44:04;4.20;;;2.28;;
11042;SDS011;5574;48.786;10.120;2023-05-18T11:46:55;5.22;;;2.28;;
11042;SDS011;5574;48.786;10.120;2023-05-18T11:49:26;4.90;;;2.17;;
11042;SDS011;5574;48.786;10.120;2023-05-18T11:52:05;2.67;;;2.08;;
11042;SDS011;5574;48.786;10.120;2023-05-18T11:54:33;5.97;;;2.20;;
11042;SDS011;5574;48.786;10.120;2023-05-18T11:57:04;4.70;;;2.13;;
11042;SDS011;5574;48.786;10.120;2023-05-18T11:59:32;4.85;;;2.20;;
11042;SDS011;5574;48.786;10.120;2023-05-18T12:02:02;5.63;;;2.30;;
11042;SDS011;5574;48.786;10.120;2023-05-18T12:04:30;3.55;;;2.00;;
11042;SDS011;5574;48.786;10.120;2023-05-18T12:06:58;5.25;;;2.10;;
11042;SDS011;5574;48.786;10.120;2023-05-18T12:09:30;5.05;;;2.13;;
11042;SDS011;5574;48.786;10.120;2023-05-18T12:11:57;5.60;;;2.08;;
11042;SDS011;5574;48.786;10.120;2023-05-18T12:14:23;5.90;;;2.42;;
11042;SDS011;5574;48.786;10.120;2023-05-18T12:16:52;4.70;;;2.38;;
11042;SDS011;5574;48.786;10.120;2023-05-18T12:19:22;5.22;;;2.58;;
11042;SDS011;5574;48.786;10.120;2023-05-18T12:21:49;4.05;;;2.50;;
11042;SDS011;5574;48.786;10.120;2023-05-18T12:24:15;4.70;;;2.30;;
11042;SDS011;5574;48.786;10.120;2023-05-18T12:26:43;6.07;;;2.47;;
11042;SDS011;5574;48.786;10.120;2023-05-18T12:29:11;10.57;;;2.85;;
11042;SDS011;5574;48.786;10.120;2023-05-18T12:31:43;6.07;;;2.35;;
11042;SDS011;5574;48.786;10.120;2023-05-18T12:34:11;9.63;;;2.45;;
11042;SDS011;5574;48.786;10.120;2023-05-18T12:36:41;6.80;;;2.20;;
11042;SDS011;5574;48.786;10.120;2023-05-18T12:39:17;5.60;;;2.30;;
11042;SDS011;5574;48.786;10.120;2023-05-18T12:41:45;5.90;;;2.00;;
11042;SDS011;5574;48.786;10.120;2023-05-18T12:44:12;4.60;;;1.90;;
11042;SDS011;5574;48.786;10.120;2023-05-18T12:46:40;6.65;;;2.53;;
11042;SDS011;5574;48.786;10.120;2023-05-18T12:49:07;4.70;;;2.45;;
11042;SDS011;5574;48.786;10.120;2023-05-18T12:51:35;4.65;;;2.20;;
11042;SDS011;5574;48.786;10.120;2023-05-18T12:54:02;3.67;;;2.05;;
11042;SDS011;5574;48.786;10.120;2023-05-18T12:56:50;2.45;;;1.70;;
11042;SDS011;5574;48.786;10.120;2023-05-18T12:59:23;3.65;;;2.22;;
11042;SDS011;5574;48.786;10.120;2023-05-18T13:01:51;5.60;;;2.10;;
11042;SDS011;5574;48.786;10.120;2023-05-18T13:04:18;5.53;;;2.20;;
11042;SDS011;5574;48.786;10.120;2023-05-18T13:06:44;5.63;;;2.42;;
11042;SDS011;5574;48.786;10.120;2023-05-18T13:09:12;5.47;;;2.97;;
11042;SDS011;5574;48.786;10.120;2023-05-18T13:11:39;4.80;;;2.33;;
11042;SDS011;5574;48.786;10.120;2023-05-18T13:14:12;6.97;;;2.10;;
11042;SDS011;5574;48.786;10.120;2023-05-18T13:16:40;4.53;;;2.10;;
11042;SDS011;5574;48.786;10.120;2023-05-18T13:19:10;5.60;;;2.28;;
11042;SDS011;5574;48.786;10.120;2023-05-18T13:21:42;4.15;;;2.55;;
11042;SDS011;5574;48.786;10.120;2023-05-18T13:24:09;3.20;;;1.75;;
11042;SDS011;5574;48.786;10.120;2023-05-18T13:26:36;4.53;;;2.33;;
11042;SDS011;5574;48.786;10.120;2023-05-18T13:29:02;3.20;;;2.17;;
11042;SDS011;5574;48.786;10.120;2023-05-18T13:31:32;3.13;;;1.88;;
11042;SDS011;5574;48.786;10.120;2023-05-18T13:33:59;4.10;;;2.13;;
11042;SDS011;5574;48.786;10.120;2023-05-18T13:36:26;3.22;;;2.15;;
11042;SDS011;5574;48.786;10.120;2023-05-18T13:38:56;6.18;;;2.20;;
11042;SDS011;5574;48.786;10.120;2023-05-18T13:41:23;6.00;;;2.35;;
11042;SDS011;5574;48.786;10.120;2023-05-18T13:43:50;4.18;;;2.17;;
11042;SDS011;5574;48.786;10.120;2023-05-18T13:46:16;4.93;;;2.42;;
11042;SDS011;5574;48.786;10.120;2023-05-18T13:48:45;5.47;;;2.20;;
11042;SDS011;5574;48.786;10.120;2023-05-18T13:51:11;4.82;;;2.28;;
11042;SDS011;5574;48.786;10.120;2023-05-18T13:53:38;3.15;;;1.98;;
11042;SDS011;5574;48.786;10.120;2023-05-18T13:56:05;4.95;;;2.00;;
11042;SDS011;5574;48.786;10.120;2023-05-18T13:58:32;4.38;;;2.00;;
11042;SDS011;5574;48.786;10.120;2023-05-18T14:00:59;4.55;;;2.20;;
11042;SDS011;5574;48.786;10.120;2023-05-18T14:03:28;4.20;;;2.13;;
11042;SDS011;5574;48.786;10.120;2023-05-18T14:05:59;3.33;;;2.05;;
11042;SDS011;5574;48.786;10.120;2023-05-18T14:08:25;6.90;;;2.80;;
11042;SDS011;5574;48.786;10.120;2023-05-18T14:10:52;5.65;;;2.25;;
11042;SDS011;5574;48.786;10.120;2023-05-18T14:13:18;4.78;;;1.95;;
11042;SDS011;5574;48.786;10.120;2023-05-18T14:15:48;3.80;;;2.05;;
11042;SDS011;5574;48.786;10.120;2023-05-18T14:18:15;11.02;;;2.83;;
11042;SDS011;5574;48.786;10.120;2023-05-18T14:20:42;3.85;;;2.58;;
11042;SDS011;5574;48.786;10.120;2023-05-18T14:23:11;3.88;;;2.13;;
11042;SDS011;5574;48.786;10.120;2023-05-18T14:25:38;5.13;;;2.35;;
11042;SDS011;5574;48.786;10.120;2023-05-18T14:28:07;3.35;;;1.90;;
11042;SDS011;5574;48.786;10.120;2023-05-18T14:30:34;4.28;;;2.10;;
11042;SDS011;5574;48.786;10.120;2023-05-18T14:33:00;3.67;;;2.15;;
11042;SDS011;5574;48.786;10.120;2023-05-18T14:35:27;3.75;;;1.98;;
11042;SDS011;5574;48.786;10.120;2023-05-18T14:37:54;4.90;;;2.20;;
11042;SDS011;5574;48.786;10.120;2023-05-18T14:40:22;6.20;;;2.28;;
11042;SDS011;5574;48.786;10.120;2023-05-18T14:42:48;4.90;;;1.98;;
11042;SDS011;5574;48.786;10.120;2023-05-18T14:45:15;3.92;;;2.22;;
11042;SDS011;5574;48.786;10.120;2023-05-18T14:47:42;2.92;;;2.17;;
11042;SDS011;5574;48.786;10.120;2023-05-18T14:50:09;7.63;;;2.50;;
11042;SDS011;5574;48.786;10.120;2023-05-18T14:52:35;4.30;;;2.10;;
11042;SDS011;5574;48.786;10.120;2023-05-18T14:55:02;4.22;;;2.20;;
11042;SDS011;5574;48.786;10.120;2023-05-18T14:57:30;2.70;;;2.10;;
11042;SDS011;5574;48.786;10.120;2023-05-18T14:59:57;3.97;;;2.25;;